createdAt,value
2018-09-21T00:00:19.543Z,10.4
2018-09-21T00:01:09.609Z,10.4
2018-09-21T00:01:59.722Z,10.4
2018-09-21T00:02:49.736Z,10.4
2018-09-21T00:03:39.221Z,10.4
2018-09-21T00:04:29.868Z,10.3
2018-09-21T00:05:20.176Z,10.3
2018-09-21T00:06:09.998Z,10.3
2018-09-21T00:06:59.473Z,10.3
2018-09-21T00:07:50.128Z,10.3
2018-09-21T00:08:40.180Z,10.3
2018-09-21T00:09:30.273Z,10.3
2018-09-21T00:10:20.625Z,10.3
2018-09-21T00:11:10.360Z,10.3
2018-09-21T00:12:00.134Z,10.2
2018-09-21T00:12:50.273Z,10.2
2018-09-21T00:13:40.563Z,10.2
2018-09-21T00:14:30.608Z,10.2
2018-09-21T00:15:20.380Z,10.1
2018-09-21T00:16:10.452Z,10.1
2018-09-21T00:17:00.541Z,10.1
2018-09-21T00:17:50.570Z,10.1
2018-09-21T00:18:40.915Z,10.1
2018-09-21T00:56:22.715Z,9.4
2018-09-21T00:57:13.233Z,9.4
2018-09-21T00:58:03.271Z,9.4
2018-09-21T00:58:53.340Z,9.4
2018-09-21T00:59:43.658Z,9.4
2018-09-21T01:00:33.491Z,9.4
2018-09-21T01:01:24.306Z,9.3
2018-09-21T01:02:13.591Z,9.3
2018-09-21T01:03:03.658Z,9.3
2018-09-21T01:03:53.710Z,9.3
2018-09-21T01:04:43.791Z,9.3
2018-09-21T01:05:33.836Z,9.3
2018-09-21T01:06:23.905Z,9.3
2018-09-21T01:07:13.672Z,9.3
2018-09-21T01:08:04.035Z,9.3
2018-09-21T01:08:54.082Z,9.2
2018-09-21T01:09:44.167Z,9.2
2018-09-21T01:10:33.960Z,9.2
2018-09-21T01:11:24.488Z,9.2
2018-09-21T01:12:14.334Z,9.1
2018-09-21T01:13:04.128Z,9.1
2018-09-21T01:13:54.174Z,9.1
2018-09-21T01:14:44.542Z,9.1
2018-09-21T01:15:34.314Z,9.1
2018-09-21T01:16:24.606Z,9.1
2018-09-21T01:17:14.131Z,9.1
2018-09-21T01:18:04.775Z,9.1
2018-09-21T01:18:54.267Z,9.1
2018-09-21T01:19:44.889Z,9.1
2018-09-21T01:20:34.964Z,9
2018-09-21T01:21:24.997Z,9
2018-09-21T01:22:14.809Z,9
2018-09-21T01:23:05.152Z,9
2018-09-21T01:23:54.652Z,9
2018-09-21T01:24:45.262Z,8.9
2018-09-21T01:25:35.046Z,8.9
2018-09-21T01:26:25.134Z,8.9
2018-09-21T01:27:14.896Z,8.9
2018-09-21T01:28:05.534Z,8.9
2018-09-21T01:28:55.583Z,8.9
2018-09-21T01:29:45.360Z,8.9
2018-09-21T01:30:35.711Z,8.9
2018-09-21T01:31:25.773Z,8.9
2018-09-21T01:32:15.838Z,8.8
2018-09-21T01:33:05.896Z,8.8
2018-09-21T01:33:55.964Z,8.8
2018-09-21T01:34:45.473Z,8.8
2018-09-21T01:35:36.079Z,8.8
2018-09-21T01:36:26.154Z,8.8
2018-09-21T01:37:15.636Z,8.8
2018-09-21T01:38:05.992Z,8.8
2018-09-21T01:38:56.350Z,8.8
2018-09-21T01:39:46.128Z,8.8
2018-09-21T01:40:36.176Z,8.8
2018-09-21T01:41:26.540Z,8.8
2018-09-21T01:42:16.567Z,8.8
2018-09-21T01:43:06.657Z,8.8
2018-09-21T01:43:56.697Z,8.8
2018-09-21T01:44:46.475Z,8.8
2018-09-21T01:45:36.575Z,8.8
2018-09-21T01:46:26.885Z,8.8
2018-09-21T01:47:17.030Z,8.8
2018-09-21T01:48:07.279Z,8.8
2018-09-21T01:48:57.075Z,8.8
2018-09-21T01:49:47.170Z,8.7
2018-09-21T01:50:37.065Z,8.8
2018-09-21T01:51:27.275Z,8.8
2018-09-21T01:52:17.325Z,8.7
2018-09-21T01:53:07.382Z,8.7
2018-09-21T01:53:57.179Z,8.7
2018-09-21T01:54:47.239Z,8.7
2018-09-21T01:55:37.579Z,8.7
2018-09-21T01:56:27.640Z,8.7
2018-09-21T01:57:17.132Z,8.6
2018-09-21T01:58:07.770Z,8.7
2018-09-21T01:58:57.259Z,8.6
2018-09-21T01:59:47.900Z,8.6
2018-09-21T02:00:37.671Z,8.6
2018-09-21T02:01:27.741Z,8.6
2018-09-21T02:02:18.075Z,8.7
2018-09-21T02:03:08.156Z,8.6
2018-09-21T02:03:57.964Z,8.7
2018-09-21T02:04:48.306Z,8.7
2018-09-21T02:05:38.046Z,8.7
2018-09-21T02:06:28.420Z,8.7
2018-09-21T02:07:18.263Z,8.7
2018-09-21T02:08:08.504Z,8.7
2018-09-21T02:08:58.579Z,8.7
2018-09-21T02:09:48.644Z,8.6
2018-09-21T02:10:38.430Z,8.6
2018-09-21T02:11:28.483Z,8.6
2018-09-21T02:12:17.976Z,8.6
2018-09-21T02:13:08.603Z,8.6
2018-09-21T02:13:58.948Z,8.6
2018-09-21T02:14:49.046Z,8.6
2018-09-21T02:15:39.101Z,8.6
2018-09-21T02:16:28.845Z,8.6
2018-09-21T02:17:18.906Z,8.6
2018-09-21T02:18:08.990Z,8.6
2018-09-21T02:18:59.091Z,8.6
2018-09-21T02:19:49.378Z,8.6
2018-09-21T02:20:38.895Z,8.6
2018-09-21T02:21:29.506Z,8.6
2018-09-21T02:22:19.568Z,8.6
2018-09-21T02:23:09.700Z,8.6
2018-09-21T02:23:59.416Z,8.6
2018-09-21T02:24:49.785Z,8.6
2018-09-21T02:25:39.539Z,8.6
2018-09-21T02:26:29.605Z,8.6
2018-09-21T02:27:19.957Z,8.6
2018-09-21T02:28:10.319Z,8.6
2018-09-21T02:29:00.084Z,8.6
2018-09-21T02:29:50.135Z,8.6
2018-09-21T02:30:40.210Z,8.6
2018-09-21T02:31:30.022Z,8.6
2018-09-21T02:32:20.340Z,8.6
2018-09-21T02:33:10.391Z,8.6
2018-09-21T02:34:00.492Z,8.6
2018-09-21T02:34:49.954Z,8.6
2018-09-21T02:35:40.612Z,8.6
2018-09-21T02:36:30.075Z,8.5
2018-09-21T02:37:20.127Z,8.5
2018-09-21T02:38:10.777Z,8.5
2018-09-21T02:39:00.539Z,8.6
2018-09-21T02:39:50.874Z,8.6
2018-09-21T02:40:40.947Z,8.6
2018-09-21T02:41:31.919Z,8.6
2018-09-21T02:42:21.074Z,8.5
2018-09-21T02:43:11.136Z,8.5
2018-09-21T02:44:01.452Z,8.5
2018-09-21T02:44:50.694Z,8.5
2018-09-21T02:45:41.321Z,8.5
2018-09-21T02:46:31.138Z,8.5
2018-09-21T02:47:21.163Z,8.5
2018-09-21T02:48:11.268Z,8.5
2018-09-21T02:49:01.574Z,8.5
2018-09-21T02:49:51.641Z,8.5
2018-09-21T02:50:41.429Z,8.5
2018-09-21T02:51:31.814Z,8.5
2018-09-21T02:52:21.596Z,8.5
2018-09-21T02:53:11.327Z,8.5
2018-09-21T02:54:01.949Z,8.5
2018-09-21T02:54:52.001Z,8.6
2018-09-21T02:55:41.792Z,8.6
2018-09-21T02:56:31.848Z,8.6
2018-09-21T02:57:22.244Z,8.6
2018-09-21T02:58:11.961Z,8.5
2018-09-21T02:59:02.328Z,8.5
2018-09-21T02:59:52.348Z,8.5
2018-09-21T03:00:43.532Z,8.5
2018-09-21T03:01:32.516Z,8.6
2018-09-21T03:02:22.636Z,8.5
2018-09-21T03:03:12.618Z,8.5
2018-09-21T03:04:02.708Z,8.6
2018-09-21T03:04:52.515Z,8.6
2018-09-21T03:05:42.805Z,8.5
2018-09-21T03:06:32.869Z,8.5
2018-09-21T03:07:22.660Z,8.5
2018-09-21T03:08:12.998Z,8.6
2018-09-21T03:09:03.063Z,8.5
2018-09-21T03:09:52.869Z,8.6
2018-09-21T03:10:43.437Z,8.6
2018-09-21T03:11:33.248Z,8.6
2018-09-21T03:12:23.287Z,8.6
2018-09-21T03:13:13.496Z,8.6
2018-09-21T03:14:03.439Z,8.6
2018-09-21T03:14:53.504Z,8.6
2018-09-21T03:15:43.030Z,8.6
2018-09-21T03:16:33.073Z,8.6
2018-09-21T03:17:24.100Z,8.6
2018-09-21T03:18:13.775Z,8.6
2018-09-21T03:19:03.898Z,8.6
2018-09-21T03:19:53.708Z,8.6
2018-09-21T03:20:43.670Z,8.6
2018-09-21T03:21:34.051Z,8.6
2018-09-21T03:22:24.367Z,8.6
2018-09-21T03:23:14.133Z,8.6
2018-09-21T03:24:04.170Z,8.6
2018-09-21T03:24:54.243Z,8.6
2018-09-21T03:25:44.633Z,8.6
2018-09-21T03:26:33.525Z,8.6
2018-09-21T03:27:24.437Z,8.6
2018-09-21T03:28:13.914Z,8.6
2018-09-21T03:29:04.275Z,8.6
2018-09-21T03:29:54.627Z,8.6
2018-09-21T03:30:44.685Z,8.6
2018-09-21T03:31:34.754Z,8.6
2018-09-21T03:32:24.839Z,8.6
2018-09-21T03:33:14.865Z,8.6
2018-09-21T03:34:04.639Z,8.6
2018-09-21T03:34:54.994Z,8.6
2018-09-21T03:35:45.079Z,8.6
2018-09-21T03:36:35.119Z,8.6
2018-09-21T03:37:25.179Z,8.6
2018-09-21T03:38:15.259Z,8.6
2018-09-21T03:39:05.296Z,8.6
2018-09-21T03:39:55.081Z,8.6
2018-09-21T03:40:45.431Z,8.6
2018-09-21T03:41:35.499Z,8.6
2018-09-21T03:42:25.541Z,8.6
2018-09-21T03:43:15.623Z,8.5
2018-09-21T03:44:05.666Z,8.5
2018-09-21T03:44:55.727Z,8.5
2018-09-21T03:45:45.556Z,8.5
2018-09-21T03:46:35.288Z,8.6
2018-09-21T03:47:25.940Z,8.5
2018-09-21T03:48:15.984Z,8.5
2018-09-21T03:49:06.053Z,8.5
2018-09-21T03:49:55.840Z,8.5
2018-09-21T03:50:46.195Z,8.5
2018-09-21T03:51:36.243Z,8.5
2018-09-21T03:52:26.310Z,8.5
2018-09-21T03:53:16.073Z,8.5
2018-09-21T03:54:06.155Z,8.5
2018-09-21T03:54:56.504Z,8.4
2018-09-21T03:55:46.557Z,8.4
2018-09-21T03:56:36.890Z,8.4
2018-09-21T03:57:26.669Z,8.4
2018-09-21T03:58:16.462Z,8.4
2018-09-21T03:59:06.497Z,8.4
2018-09-21T03:59:56.842Z,8.4
2018-09-21T04:00:46.928Z,8.4
2018-09-21T04:01:37.257Z,8.4
2018-09-21T04:02:26.721Z,8.4
2018-09-21T04:03:16.827Z,8.4
2018-09-21T04:04:07.170Z,8.4
2018-09-21T04:04:57.231Z,8.4
2018-09-21T04:05:47.289Z,8.4
2018-09-21T04:06:37.132Z,8.4
2018-09-21T04:07:26.843Z,8.4
2018-09-21T04:08:17.484Z,8.3
2018-09-21T04:09:07.541Z,8.3
2018-09-21T04:09:57.314Z,8.3
2018-09-21T04:10:47.682Z,8.3
2018-09-21T04:11:37.711Z,8.3
2018-09-21T04:12:27.817Z,8.3
2018-09-21T04:13:17.278Z,8.3
2018-09-21T04:14:07.608Z,8.3
2018-09-21T04:14:57.421Z,8.3
2018-09-21T04:15:47.745Z,8.3
2018-09-21T04:16:38.151Z,8.3
2018-09-21T04:17:27.871Z,8.3
2018-09-21T04:18:18.227Z,8.3
2018-09-21T04:19:07.703Z,8.4
2018-09-21T04:19:58.336Z,8.4
2018-09-21T04:20:48.419Z,8.4
2018-09-21T04:21:38.739Z,8.4
2018-09-21T04:22:28.543Z,8.4
2018-09-21T04:23:18.318Z,8.4
2018-09-21T04:24:08.675Z,8.4
2018-09-21T04:24:58.433Z,8.4
2018-09-21T04:25:48.775Z,8.4
2018-09-21T04:26:39.073Z,8.4
2018-09-21T04:27:29.212Z,8.5
2018-09-21T04:28:18.675Z,8.5
2018-09-21T04:29:09.159Z,8.5
2018-09-21T04:29:58.866Z,8.6
2018-09-21T04:30:48.862Z,8.5
2018-09-21T04:31:38.925Z,8.6
2018-09-21T04:32:29.275Z,8.6
2018-09-21T04:33:19.335Z,8.6
2018-09-21T04:34:09.130Z,8.6
2018-09-21T04:34:59.460Z,8.6
2018-09-21T04:35:49.527Z,8.6
2018-09-21T04:36:39.607Z,8.6
2018-09-21T04:37:29.664Z,8.6
2018-09-21T04:38:19.719Z,8.7
2018-09-21T04:39:09.825Z,8.7
2018-09-21T04:39:59.827Z,8.7
2018-09-21T04:40:49.899Z,8.8
2018-09-21T04:41:40.242Z,8.8
2018-09-21T04:42:29.734Z,8.8
2018-09-21T04:43:20.084Z,8.8
2018-09-21T04:44:09.851Z,8.8
2018-09-21T04:45:00.018Z,8.9
2018-09-21T04:45:50.668Z,8.9
2018-09-21T04:46:40.099Z,8.9
2018-09-21T04:47:30.409Z,8.9
2018-09-21T04:48:20.788Z,9
2018-09-21T04:49:10.603Z,9
2018-09-21T04:50:00.717Z,9.1
2018-09-21T04:50:50.631Z,9.1
2018-09-21T04:51:40.121Z,9.1
2018-09-21T04:52:31.244Z,9.1
2018-09-21T04:53:20.832Z,9.2
2018-09-21T04:54:10.883Z,9.3
2018-09-21T04:55:00.656Z,9.3
2018-09-21T04:55:50.996Z,9.4
2018-09-21T04:56:41.063Z,9.4
2018-09-21T04:57:31.169Z,9.5
2018-09-21T04:58:21.201Z,9.6
2018-09-21T04:59:10.965Z,9.6
2018-09-21T05:00:01.331Z,9.7
2018-09-21T05:00:51.421Z,9.8
2018-09-21T05:01:41.447Z,9.8
2018-09-21T05:02:31.520Z,9.9
2018-09-21T05:03:21.557Z,10
2018-09-21T05:04:11.615Z,10.1
2018-09-21T05:05:01.692Z,10.3
2018-09-21T05:05:51.758Z,10.4
2018-09-21T05:06:41.515Z,10.5
2018-09-21T05:07:31.293Z,10.7
2018-09-21T05:25:11.892Z,19.8
2018-09-21T05:26:02.216Z,20.3
2018-09-21T05:26:52.336Z,20.6
2018-09-21T05:27:42.577Z,21
2018-09-21T05:28:32.106Z,21.3
2018-09-21T05:29:22.148Z,21.6
2018-09-21T05:30:12.507Z,22
2018-09-21T05:31:02.595Z,22.3
2018-09-21T05:31:52.897Z,22.6
2018-09-21T05:32:42.721Z,22.9
2018-09-21T05:33:32.469Z,23.3
2018-09-21T05:34:23.393Z,23.6
2018-09-21T05:35:14.011Z,24
2018-09-21T05:36:02.967Z,24.4
2018-09-21T05:36:52.998Z,24.7
2018-09-21T05:37:43.054Z,25.1
2018-09-21T05:38:33.123Z,25.4
2018-09-21T05:39:23.218Z,25.8
2018-09-21T05:40:12.696Z,26.1
2018-09-21T05:41:02.754Z,26.4
2018-09-21T05:41:53.619Z,26.8
2018-09-21T05:42:43.441Z,27.1
2018-09-21T05:43:33.238Z,27.4
2018-09-21T05:44:23.061Z,27.7
2018-09-21T05:45:13.091Z,27.9
2018-09-21T05:46:03.140Z,28.3
2018-09-21T05:46:53.506Z,28.5
2018-09-21T05:47:43.843Z,28.8
2018-09-21T05:48:33.944Z,29.1
2018-09-21T05:49:23.915Z,29.4
2018-09-21T05:50:14.045Z,29.5
2018-09-21T05:51:03.790Z,29.8
2018-09-21T05:51:53.868Z,29.9
2018-09-21T05:52:44.188Z,30.1
2018-09-21T05:53:34.018Z,30.2
2018-09-21T05:54:24.373Z,30.3
2018-09-21T05:55:14.383Z,30.4
2018-09-21T05:56:04.411Z,30.6
2018-09-21T05:56:54.233Z,30.7
2018-09-21T05:57:44.277Z,30.8
2018-09-21T05:58:34.636Z,30.9
2018-09-21T05:59:24.187Z,31
2018-09-21T06:00:14.515Z,31.1
2018-09-21T06:01:04.841Z,31.3
2018-09-21T06:01:54.915Z,31.4
2018-09-21T06:02:44.482Z,31.6
2018-09-21T06:03:35.025Z,31.7
2018-09-21T06:04:25.313Z,31.8
2018-09-21T06:05:15.134Z,32
2018-09-21T06:06:04.755Z,32.1
2018-09-21T06:06:54.998Z,32.3
2018-09-21T06:07:45.370Z,32.5
2018-09-21T06:08:35.369Z,32.7
2018-09-21T06:09:25.480Z,32.9
2018-09-21T06:10:14.960Z,33.1
2018-09-21T06:11:05.295Z,33.3
2018-09-21T06:11:55.063Z,33.6
2018-09-21T06:12:45.435Z,33.8
2018-09-21T06:13:35.322Z,34
2018-09-21T06:14:25.898Z,34.3
2018-09-21T06:15:15.138Z,34.5
2018-09-21T06:16:05.723Z,34.7
2018-09-21T06:16:55.744Z,34.9
2018-09-21T06:17:46.091Z,35.1
2018-09-21T06:18:35.851Z,35.3
2018-09-21T06:19:26.153Z,35.5
2018-09-21T06:20:16.224Z,35.8
2018-09-21T06:21:06.524Z,35.9
2018-09-21T06:21:55.849Z,36.1
2018-09-21T06:22:48.132Z,36.3
2018-09-21T06:23:36.539Z,36.6
2018-09-21T06:24:26.606Z,36.7
2018-09-21T06:25:16.641Z,36.9
2018-09-21T06:26:06.691Z,37.1
2018-09-21T06:26:56.786Z,37.3
2018-09-21T06:27:46.823Z,37.4
2018-09-21T06:28:36.663Z,37.6
2018-09-21T06:29:26.964Z,37.8
2018-09-21T06:30:16.738Z,37.9
2018-09-21T06:31:06.526Z,38
2018-09-21T06:31:57.442Z,38.3
2018-09-21T06:32:46.951Z,38.5
2018-09-21T06:33:37.007Z,38.8
2018-09-21T06:34:27.063Z,39.1
2018-09-21T06:35:17.655Z,39.3
2018-09-21T06:36:07.185Z,39.5
2018-09-21T06:36:57.508Z,39.8
2018-09-21T06:37:47.562Z,40
2018-09-21T06:38:37.375Z,40.3
2018-09-21T06:39:27.729Z,40.5
2018-09-21T06:40:17.485Z,40.8
2018-09-21T06:41:08.215Z,41.1
2018-09-21T06:41:57.903Z,41.4
2018-09-21T06:42:47.696Z,41.6
2018-09-21T06:43:38.015Z,41.9
2018-09-21T06:44:27.966Z,42.1
2018-09-21T06:45:17.888Z,42.3
2018-09-21T06:46:07.915Z,42.4
2018-09-21T06:46:57.682Z,42.7
2018-09-21T06:47:48.032Z,42.9
2018-09-21T06:48:38.103Z,43.2
2018-09-21T06:49:28.690Z,43.5
2018-09-21T06:50:18.495Z,43.8
2018-09-21T06:51:08.597Z,44.1
2018-09-21T06:51:58.627Z,44.4
2018-09-21T06:52:48.934Z,44.6
2018-09-21T06:53:38.476Z,44.9
2018-09-21T06:54:28.530Z,45.3
2018-09-21T06:55:18.877Z,45.6
2018-09-21T06:56:08.406Z,45.8
2018-09-21T06:56:58.477Z,46
2018-09-21T06:57:49.111Z,46.3
2018-09-21T06:58:39.139Z,46.5
2018-09-21T06:59:29.192Z,46.8
2018-09-21T07:00:18.704Z,47.1
2018-09-21T07:01:09.044Z,47.4
2018-09-21T07:01:59.986Z,47.7
2018-09-21T07:02:49.451Z,48.1
2018-09-21T07:03:39.198Z,48.4
2018-09-21T07:04:29.584Z,48.6
2018-09-21T07:05:19.729Z,48.9
2018-09-21T07:06:09.126Z,49.1
2018-09-21T07:06:59.771Z,49.3
2018-09-21T07:07:49.541Z,49.3
2018-09-21T07:08:40.153Z,49.5
2018-09-21T07:09:29.411Z,49.9
2018-09-21T07:10:19.810Z,50
2018-09-21T07:11:10.086Z,50.2
2018-09-21T07:11:59.931Z,50.3
2018-09-21T07:12:49.670Z,50.5
2018-09-21T07:13:39.705Z,50.9
2018-09-21T07:14:29.790Z,51.2
2018-09-21T07:15:20.113Z,51.6
2018-09-21T07:16:09.922Z,51.9
2018-09-21T07:17:00.520Z,52.2
2018-09-21T07:17:50.598Z,52.4
2018-09-21T07:18:40.365Z,52.8
2018-09-21T07:19:30.418Z,53
2018-09-21T07:20:20.499Z,53.2
2018-09-21T07:21:10.274Z,53.3
2018-09-21T07:22:00.639Z,53.4
2018-09-21T07:22:50.977Z,53.5
2018-09-21T07:23:40.765Z,53.5
2018-09-21T07:24:30.792Z,53.6
2018-09-21T07:25:21.135Z,53.6
2018-09-21T07:26:11.240Z,53.6
2018-09-21T07:27:00.724Z,53.6
2018-09-21T07:27:51.322Z,53.8
2018-09-21T07:28:41.107Z,53.8
2018-09-21T07:29:31.475Z,53.9
2018-09-21T07:30:21.255Z,54.1
2018-09-21T07:31:11.855Z,54.2
2018-09-21T07:32:01.655Z,54.3
2018-09-21T07:32:51.747Z,54.3
2018-09-21T07:33:41.773Z,54.4
2018-09-21T07:34:31.838Z,54.6
2018-09-21T07:35:21.913Z,54.6
2018-09-21T07:36:11.414Z,54.4
2018-09-21T07:37:01.502Z,54.5
2018-09-21T07:37:51.807Z,54.6
2018-09-21T07:38:42.205Z,54.7
2018-09-21T07:39:32.199Z,54.8
2018-09-21T07:40:21.992Z,54.9
2018-09-21T07:41:11.789Z,55.1
2018-09-21T07:42:02.408Z,55.3
2018-09-21T07:42:52.450Z,55.6
2018-09-21T07:43:42.527Z,56
2018-09-21T07:44:32.558Z,56.3
2018-09-21T07:45:22.689Z,56.7
2018-09-21T07:46:12.714Z,57.1
2018-09-21T07:47:02.489Z,57.5
2018-09-21T07:47:52.391Z,57.8
2018-09-21T07:48:42.914Z,58.1
2018-09-21T07:49:32.698Z,58.4
2018-09-21T07:50:23.254Z,58.7
2018-09-21T07:51:13.108Z,59
2018-09-21T07:52:03.113Z,59.4
2018-09-21T07:52:52.921Z,59.8
2018-09-21T07:53:43.266Z,60.3
2018-09-21T07:54:33.444Z,60.8
2018-09-21T07:55:23.391Z,61.1
2018-09-21T07:56:13.463Z,61.4
2018-09-21T07:57:03.511Z,61.7
2018-09-21T07:57:53.596Z,62
2018-09-21T07:58:43.663Z,62.9
2018-09-21T07:59:33.438Z,62.5
2018-09-21T08:00:23.496Z,59.9
2018-09-21T08:01:13.853Z,56.6
2018-09-21T08:02:03.924Z,50.4
2018-09-21T08:02:54.270Z,47.1
2018-09-21T08:03:43.738Z,45.4
2018-09-21T08:04:34.093Z,44.6
2018-09-21T08:05:24.180Z,44.1
2018-09-21T08:06:13.948Z,43.8
2018-09-21T08:07:04.115Z,43.9
2018-09-21T08:07:54.325Z,44.5
2018-09-21T08:08:44.407Z,45.3
2018-09-21T08:09:34.453Z,46.4
2018-09-21T08:10:24.307Z,47.6
2018-09-21T08:11:14.295Z,48.8
2018-09-21T08:12:04.652Z,49.9
2018-09-21T08:12:54.336Z,51.1
2018-09-21T08:13:44.771Z,52.1
2018-09-21T08:14:34.565Z,53
2018-09-21T08:15:24.344Z,53.8
2018-09-21T08:16:14.977Z,54.6
2018-09-21T08:17:04.742Z,55.4
2018-09-21T08:17:55.117Z,56.1
2018-09-21T08:18:45.195Z,56.7
2018-09-21T08:19:35.705Z,57.3
2018-09-21T08:20:25.290Z,58.1
2018-09-21T08:21:15.058Z,58.8
2018-09-21T08:22:05.407Z,59.6
2018-09-21T08:22:55.213Z,60.3
2018-09-21T08:23:45.519Z,60.9
2018-09-21T08:24:35.332Z,61.6
2018-09-21T08:25:25.674Z,62.3
2018-09-21T08:26:15.461Z,63.6
2018-09-21T08:27:05.526Z,64.6
2018-09-21T08:27:55.846Z,61.7
2018-09-21T08:28:45.917Z,58.5
2018-09-21T08:29:35.696Z,53.8
2018-09-21T08:30:26.051Z,50.6
2018-09-21T08:31:16.000Z,49.1
2018-09-21T08:32:05.878Z,48.6
2018-09-21T08:32:56.271Z,48.8
2018-09-21T08:33:46.297Z,49.5
2018-09-21T08:34:36.373Z,50.6
2018-09-21T08:35:26.441Z,51.8
2018-09-21T08:36:16.523Z,53
2018-09-21T08:37:06.895Z,54.3
2018-09-21T08:37:56.661Z,55.6
2018-09-21T08:38:46.723Z,56.6
2018-09-21T08:39:36.731Z,57.8
2018-09-21T08:40:26.537Z,59
2018-09-21T08:41:16.293Z,60.3
2018-09-21T08:42:07.168Z,61.4
2018-09-21T08:42:56.623Z,62.4
2018-09-21T08:43:46.784Z,63.9
2018-09-21T08:44:36.559Z,65.6
2018-09-21T08:45:27.519Z,63.8
2018-09-21T08:46:17.233Z,62
2018-09-21T08:47:07.273Z,59.6
2018-09-21T08:47:57.373Z,56.3
2018-09-21T08:48:46.873Z,54.2
2018-09-21T08:49:37.491Z,53.4
2018-09-21T08:50:27.561Z,53.9
2018-09-21T08:51:17.363Z,55
2018-09-21T08:52:07.431Z,56.4
2018-09-21T08:53:47.075Z,59.1
2018-09-21T08:54:37.898Z,60.4
2018-09-21T08:55:27.960Z,61.6
2018-09-21T08:56:17.997Z,63.5
2018-09-21T08:57:07.595Z,65.3
2018-09-21T08:57:58.122Z,64.5
2018-09-21T08:58:47.937Z,64.1
2018-09-21T08:59:37.995Z,62
2018-09-21T09:00:28.057Z,59.1
2018-09-21T09:01:18.523Z,56.8
2018-09-21T09:02:08.203Z,56.1
2018-09-21T09:02:59.213Z,56.5
2018-09-21T09:03:48.744Z,57.3
2018-09-21T09:04:38.509Z,57.9
2018-09-21T09:05:28.255Z,57.9
2018-09-21T09:06:18.854Z,57.6
2018-09-21T09:07:08.886Z,57.2
2018-09-21T09:07:58.647Z,56.9
2018-09-21T09:08:48.944Z,56.9
2018-09-21T09:09:39.015Z,57
2018-09-21T09:10:28.823Z,57.3
2018-09-21T09:11:19.179Z,57.5
2018-09-21T09:12:08.653Z,57.7
2018-09-21T09:13:49.081Z,57.6
2018-09-21T09:14:39.414Z,57.6
2018-09-21T09:15:29.179Z,57.6
2018-09-21T09:16:19.236Z,57.5
2018-09-21T09:17:09.579Z,57.5
2018-09-21T09:17:59.666Z,57.5
2018-09-21T09:18:49.739Z,57.4
2018-09-21T09:19:39.514Z,57.4
2018-09-21T09:20:29.668Z,57.6
2018-09-21T09:21:19.619Z,58
2018-09-21T09:22:09.966Z,58.3
2018-09-21T09:22:59.827Z,58.7
2018-09-21T09:39:56.728Z,61.3
2018-09-21T09:40:47.095Z,61.4
2018-09-21T09:41:37.219Z,61.1
2018-09-21T09:42:27.232Z,60.8
2018-09-21T09:43:17.178Z,60.6
2018-09-21T09:44:07.360Z,60.4
2018-09-21T09:44:58.249Z,60.1
2018-09-21T09:45:47.202Z,59.7
2018-09-21T09:46:37.530Z,59.7
2018-09-21T09:47:27.584Z,59.8
2018-09-21T09:48:17.547Z,59.8
2018-09-21T09:49:08.096Z,59.6
2018-09-21T09:49:57.782Z,59.7
2018-09-21T09:50:47.844Z,59.7
2018-09-21T09:51:37.942Z,59.6
2018-09-21T09:52:27.980Z,59.6
2018-09-21T09:53:18.040Z,59.7
2018-09-21T09:54:08.102Z,59.7
2018-09-21T09:54:58.621Z,59.6
2018-09-21T09:55:47.943Z,59.5
2018-09-21T09:56:38.002Z,59.4
2018-09-21T09:57:28.356Z,59.4
2018-09-21T09:58:18.418Z,59.4
2018-09-21T09:59:08.474Z,59.6
2018-09-21T09:59:58.256Z,59.6
2018-09-21T10:00:48.659Z,59.5
2018-09-21T10:01:38.676Z,59.4
2018-09-21T10:02:28.723Z,59.3
2018-09-21T10:03:18.508Z,59.3
2018-09-21T10:04:08.871Z,59.4
2018-09-21T10:04:58.926Z,59.4
2018-09-21T10:05:48.706Z,59.6
2018-09-21T10:06:39.062Z,59.7
2018-09-21T10:07:28.626Z,59.8
2018-09-21T10:08:18.890Z,59.6
2018-09-21T10:09:08.973Z,59.5
2018-09-21T10:09:59.291Z,59.6
2018-09-21T10:10:49.381Z,59.8
2018-09-21T10:11:39.138Z,59.9
2018-09-21T10:12:29.205Z,59.9
2018-09-21T10:13:19.300Z,59.8
2018-09-21T10:14:09.615Z,59.7
2018-09-21T10:14:59.388Z,59.7
2018-09-21T10:15:49.815Z,59.7
2018-09-21T10:16:39.832Z,59.8
2018-09-21T10:17:29.593Z,59.9
2018-09-21T10:18:19.938Z,60
2018-09-21T10:19:10.003Z,60.3
2018-09-21T10:19:59.497Z,60.6
2018-09-21T10:20:50.980Z,60.7
2018-09-21T10:21:39.723Z,60.6
2018-09-21T10:22:30.247Z,60.4
2018-09-21T10:23:20.325Z,60.3
2018-09-21T10:24:10.492Z,59.9
2018-09-21T10:25:00.170Z,59.8
2018-09-21T10:25:50.506Z,59.9
2018-09-21T10:26:40.144Z,59.9
2018-09-21T10:27:32.083Z,60
2018-09-21T10:28:22.152Z,60.2
2018-09-21T10:29:10.872Z,60.3
2018-09-21T10:30:00.849Z,60.3
2018-09-21T10:30:50.923Z,60.3
2018-09-21T10:31:41.019Z,60.4
2018-09-21T10:32:30.752Z,60.6
2018-09-21T10:33:21.535Z,60.9
2018-09-21T10:34:11.164Z,61.2
2018-09-21T10:35:00.719Z,61.4
2018-09-21T10:35:51.269Z,61.5
2018-09-21T10:36:41.322Z,61.6
2018-09-21T10:37:31.108Z,61.4
2018-09-21T10:38:21.484Z,61.3
2018-09-21T10:39:12.025Z,61.3
2018-09-21T10:40:02.132Z,61.6
2018-09-21T10:40:51.641Z,61.9
2018-09-21T10:41:41.737Z,61.9
2018-09-21T10:42:31.888Z,61.9
2018-09-21T10:43:21.586Z,62.1
2018-09-21T10:44:11.613Z,62.3
2018-09-21T10:45:01.994Z,62.5
2018-09-21T10:45:52.025Z,62.8
2018-09-21T10:46:42.236Z,62.9
2018-09-21T10:47:31.861Z,63
2018-09-21T10:48:22.201Z,63.1
2018-09-21T10:49:12.276Z,63.3
2018-09-21T10:50:02.350Z,63.4
2018-09-21T10:50:53.915Z,63.6
2018-09-21T10:51:42.518Z,63.8
2018-09-21T10:52:32.309Z,63.8
2018-09-21T10:53:22.110Z,63.8
2018-09-21T10:54:12.377Z,63.7
2018-09-21T10:55:02.460Z,63.5
2018-09-21T10:55:52.500Z,63.4
2018-09-21T10:56:43.101Z,63.3
2018-09-21T10:57:32.430Z,63.4
2018-09-21T10:58:22.979Z,63.4
2018-09-21T10:59:12.560Z,63.2
2018-09-21T11:00:02.325Z,62.9
2018-09-21T11:00:53.167Z,62.8
2018-09-21T11:01:43.227Z,62.8
2018-09-21T11:02:33.004Z,62.6
2018-09-21T11:03:23.349Z,62.6
2018-09-21T11:04:13.415Z,62.5
2018-09-21T11:05:02.911Z,62.3
2018-09-21T11:05:53.540Z,62
2018-09-21T11:06:43.052Z,61.7
2018-09-21T11:07:33.634Z,61.3
2018-09-21T11:08:23.733Z,61.2
2018-09-21T11:09:13.848Z,60.9
2018-09-21T11:10:03.861Z,60.6
2018-09-21T11:10:53.368Z,60.1
2018-09-21T11:11:43.994Z,59.8
2018-09-21T11:12:33.827Z,59.4
2018-09-21T11:13:24.150Z,59.1
2018-09-21T11:14:14.178Z,58.8
2018-09-21T11:15:03.951Z,58.4
2018-09-21T11:15:54.312Z,58
2018-09-21T11:17:34.142Z,57.5
2018-09-21T11:18:24.488Z,57.4
2018-09-21T11:19:13.990Z,57.3
2018-09-21T11:20:04.348Z,57.1
2018-09-21T11:20:54.388Z,57.1
2018-09-21T11:21:44.754Z,56.9
2018-09-21T11:22:34.250Z,56.8
2018-09-21T11:23:24.579Z,56.7
2018-09-21T11:24:14.960Z,56.8
2018-09-21T11:25:05.006Z,56.8
2018-09-21T11:25:55.067Z,56.8
2018-09-21T11:26:45.122Z,56.7
2018-09-21T11:27:34.858Z,56.5
2018-09-21T11:28:25.260Z,56.2
2018-09-21T11:29:15.045Z,55.9
2018-09-21T11:30:04.805Z,55.8
2018-09-21T11:30:55.448Z,55.8
2018-09-21T11:31:45.501Z,55.5
2018-09-21T11:32:35.746Z,55.4
2018-09-21T11:33:25.650Z,55.4
2018-09-21T11:34:15.435Z,55.3
2018-09-21T11:35:05.470Z,54.9
2018-09-21T11:35:55.835Z,54.6
2018-09-21T11:36:45.893Z,54.5
2018-09-21T11:37:35.965Z,54.4
2018-09-21T11:38:26.010Z,54.5
2018-09-21T11:39:15.799Z,54.7
2018-09-21T11:40:05.862Z,55
2018-09-21T11:40:56.179Z,55.3
2018-09-21T11:41:46.186Z,55.4
2018-09-21T11:42:36.054Z,55.6
2018-09-21T11:43:26.136Z,55.8
2018-09-21T11:44:15.972Z,55.9
2018-09-21T11:45:05.461Z,56.1
2018-09-21T11:45:56.597Z,56.1
2018-09-21T11:46:47.361Z,56.1
2018-09-21T11:47:37.218Z,56.3
2018-09-21T11:48:26.776Z,56.3
2018-09-21T11:49:16.844Z,56.3
2018-09-21T11:50:06.614Z,56.3
2018-09-21T11:50:57.011Z,56.5
2018-09-21T11:51:47.025Z,56.7
2018-09-21T11:52:37.346Z,56.9
2018-09-21T11:53:27.161Z,57
2018-09-21T11:54:17.232Z,57
2018-09-21T11:55:06.996Z,56.9
2018-09-21T11:55:57.381Z,56.9
2018-09-21T11:56:47.121Z,57
2018-09-21T11:57:37.469Z,57.1
2018-09-21T11:58:26.978Z,57.3
2018-09-21T11:59:17.594Z,57.4
2018-09-21T12:00:07.671Z,57.6
2018-09-21T12:00:57.716Z,57.7
2018-09-21T12:03:27.918Z,57.8
2018-09-21T12:04:17.488Z,57.9
2018-09-21T12:05:08.162Z,57.9
2018-09-21T12:05:57.618Z,57.9
2018-09-21T12:06:48.221Z,57.9
2018-09-21T12:07:38.275Z,57.9
2018-09-21T12:08:28.254Z,57.9
2018-09-21T12:09:18.111Z,58
2018-09-21T12:10:08.413Z,58.1
2018-09-21T12:10:58.203Z,58.4
2018-09-21T12:11:48.548Z,58.5
2018-09-21T12:12:38.320Z,58.6
2018-09-21T12:13:28.667Z,58.7
2018-09-21T12:14:17.894Z,58.7
2018-09-21T12:15:08.804Z,58.7
2018-09-21T12:15:59.152Z,58.6
2018-09-21T12:16:49.067Z,58.6
2018-09-21T12:17:39.020Z,58.6
2018-09-21T12:19:19.390Z,58.5
2018-09-21T12:20:09.175Z,58.5
2018-09-21T12:20:59.250Z,58.4
2018-09-21T12:21:49.307Z,58.3
2018-09-21T12:22:38.916Z,58.3
2018-09-21T12:23:29.443Z,58.1
2018-09-21T12:24:19.510Z,58.1
2018-09-21T12:25:09.627Z,58
2018-09-21T12:25:59.638Z,57.9
2018-09-21T12:26:49.727Z,57.9
2018-09-21T12:27:39.744Z,57.6
2018-09-21T12:28:29.537Z,57.5
2018-09-21T12:29:19.882Z,57.5
2018-09-21T12:30:10.161Z,57.4
2018-09-21T12:30:59.721Z,57.4
2018-09-21T12:31:50.082Z,57.3